Terminal Aerodrome Forecast
Issued by NWS Cleveland, OH

Home | Current Version | Previous Version | Text Only | Print | Product List | Glossary On
Versions: 1 2 3 4 5 6 7 8 9 10 11 12 13
000
FTUS41 KCLE 031201 AAA
TAFERI
TAF AMD
KERI 031201Z 0312/0412 18005KT P6SM BKN250
      TEMPO 0312/0313 6SM BR BKN007
     FM031700 32007KT P6SM SCT060 BKN200
     FM040000 18003KT P6SM SCT200=

USA.gov is the U.S. government's official web portal to all federal, state and local government web resources and services.